createdAt,value
2023-04-26T00:01:53.298Z,52.04
2023-04-26T00:03:56.618Z,52.42
2023-04-26T00:05:58.113Z,52.44
2023-04-26T00:07:59.518Z,52.56
2023-04-26T00:10:00.894Z,53.14
2023-04-26T00:12:02.861Z,53.07
2023-04-26T00:14:04.163Z,52.53
2023-04-26T00:16:06.007Z,52.63
2023-04-26T00:18:07.442Z,52.35
2023-04-26T00:20:11.630Z,52.63
2023-04-26T00:22:13.095Z,52.75
2023-04-26T00:24:14.402Z,52.21
2023-04-26T00:26:16.013Z,52.18
2023-04-26T00:28:17.399Z,52.99
2023-04-26T00:30:18.720Z,53.28
2023-04-26T00:32:20.150Z,53.53
2023-04-26T00:34:21.508Z,53.67
2023-04-26T00:36:22.804Z,53.92
2023-04-26T00:38:24.135Z,54.41
2023-04-26T00:40:25.466Z,53.98
2023-04-26T00:42:26.776Z,54.33
2023-04-26T00:44:28.112Z,54.53
2023-04-26T00:46:31.080Z,54.95
2023-04-26T00:48:32.416Z,55.02
2023-04-26T00:50:33.752Z,54.69
2023-04-26T00:52:35.088Z,55.19
2023-04-26T00:54:36.456Z,55.11
2023-04-26T00:56:37.811Z,55.42
2023-04-26T00:58:39.152Z,55.50
2023-04-26T01:00:40.467Z,55.34
2023-04-26T01:02:42.312Z,55.37
2023-04-26T01:04:45.346Z,55.38
2023-04-26T01:06:46.804Z,55.83
2023-04-26T01:08:48.225Z,55.33
2023-04-26T01:10:49.527Z,55.45
2023-04-26T01:12:50.996Z,55.43
2023-04-26T01:14:52.354Z,56.45
2023-04-26T01:16:53.719Z,57.16
2023-04-26T01:18:55.197Z,56.52
2023-04-26T01:20:57.175Z,57.08
2023-04-26T01:22:58.510Z,57.55
2023-04-26T01:24:59.871Z,56.89
2023-04-26T01:27:01.729Z,56.72
2023-04-26T01:29:03.128Z,56.82
2023-04-26T01:31:04.566Z,57.12
2023-04-26T01:33:06.613Z,56.71
2023-04-26T01:35:08.149Z,56.88
2023-04-26T01:37:09.512Z,57.46
2023-04-26T01:39:10.829Z,57.15
2023-04-26T01:41:12.422Z,56.51
2023-04-26T01:43:15.569Z,56.92
2023-04-26T01:45:17.588Z,56.77
2023-04-26T01:47:19.091Z,57.23
2023-04-26T01:49:20.428Z,56.96
2023-04-26T01:51:21.816Z,57.31
2023-04-26T01:53:23.171Z,57.11
2023-04-26T01:55:24.477Z,57.06
2023-04-26T01:57:25.809Z,57.12
2023-04-26T01:59:27.202Z,57.09
2023-04-26T02:01:28.655Z,57.73
2023-04-26T02:03:29.990Z,56.91
2023-04-26T02:05:31.398Z,57.14
2023-04-26T02:07:32.700Z,57.27
2023-04-26T02:09:34.004Z,57.18
2023-04-26T02:11:35.416Z,57.10
2023-04-26T02:13:36.884Z,57.02
2023-04-26T02:15:38.327Z,56.98
2023-04-26T02:17:39.857Z,56.89
2023-04-26T02:19:41.219Z,57.13
2023-04-26T02:21:42.551Z,57.22
2023-04-26T02:23:43.916Z,56.81
2023-04-26T02:25:45.261Z,56.78
2023-04-26T02:27:46.588Z,56.80
2023-04-26T02:29:47.941Z,57.16
2023-04-26T02:31:49.402Z,56.74
2023-04-26T02:33:50.949Z,56.93
2023-04-26T02:35:52.288Z,57.20
2023-04-26T02:37:53.633Z,56.83
2023-04-26T02:39:54.959Z,56.94
2023-04-26T02:41:56.354Z,56.97
2023-04-26T02:43:57.656Z,57.30
2023-04-26T02:46:00.947Z,57.01
2023-04-26T02:48:02.341Z,57.02
2023-04-26T02:50:07.633Z,56.90
2023-04-26T02:52:09.051Z,57.39
2023-04-26T02:54:10.376Z,57.13
2023-04-26T02:56:11.948Z,57.34
2023-04-26T02:58:13.322Z,57.94
2023-04-26T03:00:14.626Z,57.90
2023-04-26T03:02:15.997Z,57.83
2023-04-26T03:04:17.870Z,57.95
2023-04-26T03:06:19.280Z,57.63
2023-04-26T03:08:20.784Z,58.22
2023-04-26T03:10:22.077Z,58.38
2023-04-26T03:12:23.407Z,58.11
2023-04-26T03:14:24.896Z,58.59
2023-04-26T03:16:27.525Z,58.28
2023-04-26T03:18:28.936Z,58.55
2023-04-26T03:20:30.280Z,58.46
2023-04-26T03:22:31.593Z,58.73
2023-04-26T03:24:33.138Z,58.53
2023-04-26T03:26:34.467Z,58.54
2023-04-26T03:28:35.816Z,58.39
2023-04-26T03:30:37.218Z,58.19
2023-04-26T03:32:38.705Z,58.07
2023-04-26T03:34:40.058Z,58.42
2023-04-26T03:36:41.483Z,58.25
2023-04-26T03:38:42.909Z,58.27
2023-04-26T03:40:44.211Z,58.24
2023-04-26T03:42:45.976Z,58.18
2023-04-26T03:44:47.257Z,58.34
2023-04-26T03:46:48.668Z,58.10
2023-04-26T03:48:50.394Z,58.05
2023-04-26T03:50:51.926Z,58.20
2023-04-26T03:52:53.336Z,58.48
2023-04-26T03:54:54.663Z,58.18
2023-04-26T03:56:55.971Z,58.63
2023-04-26T03:58:57.378Z,58.08
2023-04-26T04:00:58.686Z,58.12
2023-04-26T04:03:00.277Z,58.43
2023-04-26T04:05:02.404Z,58.36
2023-04-26T04:07:03.790Z,57.87
2023-04-26T04:09:08.213Z,58.62
2023-04-26T04:11:09.555Z,58.48
2023-04-26T04:13:11.377Z,59.01
2023-04-26T04:15:12.731Z,58.97
2023-04-26T04:17:14.028Z,58.87
2023-04-26T04:19:15.357Z,58.16
2023-04-26T04:21:16.651Z,58.40
2023-04-26T04:23:18.022Z,58.56
2023-04-26T04:25:21.281Z,58.39
2023-04-26T04:27:22.787Z,58.15
2023-04-26T04:29:24.198Z,58.81
2023-04-26T04:31:25.558Z,58.80
2023-04-26T04:33:28.569Z,58.64
2023-04-26T04:35:33.516Z,58.56
2023-04-26T04:37:34.983Z,58.60
2023-04-26T04:39:36.491Z,58.29
2023-04-26T04:41:37.872Z,58.30
2023-04-26T04:43:39.152Z,58.49
2023-04-26T04:45:40.461Z,58.61
2023-04-26T04:47:41.889Z,58.04
2023-04-26T04:49:43.376Z,58.16
2023-04-26T04:51:44.720Z,58.73
2023-04-26T04:53:46.109Z,58.28
2023-04-26T04:55:47.476Z,57.75
2023-04-26T04:57:48.807Z,57.96
2023-04-26T04:59:50.133Z,57.67
2023-04-26T05:01:51.616Z,57.53
2023-04-26T05:03:53.243Z,57.92
2023-04-26T05:05:54.857Z,57.69
2023-04-26T05:07:56.235Z,58.56
2023-04-26T05:10:00.482Z,58.50
2023-04-26T05:12:03.114Z,58.72
2023-04-26T05:14:04.420Z,58.90
2023-04-26T05:16:05.829Z,58.19
2023-04-26T05:18:07.192Z,58.91
2023-04-26T05:20:08.540Z,58.51
2023-04-26T05:22:09.873Z,57.84
2023-04-26T05:24:11.302Z,58.16
2023-04-26T05:26:12.645Z,58.18
2023-04-26T05:28:14.394Z,58.18
2023-04-26T05:30:15.791Z,58.08
2023-04-26T05:32:17.125Z,58.51
2023-04-26T05:34:18.693Z,58.33
2023-04-26T05:36:20.015Z,58.39
2023-04-26T05:38:22.081Z,58.46
2023-04-26T05:40:23.560Z,58.34
2023-04-26T05:42:24.855Z,58.31
2023-04-26T05:44:26.192Z,58.25
2023-04-26T05:46:27.761Z,58.42
2023-04-26T05:48:29.962Z,58.63
2023-04-26T05:50:31.438Z,58.61
2023-04-26T05:52:32.734Z,58.53
2023-04-26T05:54:34.029Z,58.52
2023-04-26T05:56:35.346Z,58.31
2023-04-26T05:58:37.168Z,58.63
2023-04-26T06:00:41.956Z,58.53
2023-04-26T06:02:43.366Z,58.29
2023-04-26T06:04:45.011Z,58.59
2023-04-26T06:06:46.519Z,58.11
2023-04-26T06:08:47.866Z,58.26
2023-04-26T06:10:49.228Z,57.94
2023-04-26T06:12:50.679Z,57.79
2023-04-26T06:14:54.019Z,58.02
2023-04-26T06:16:55.351Z,58.40
2023-04-26T06:18:56.707Z,58.20
2023-04-26T06:20:58.062Z,57.99
2023-04-26T06:22:59.410Z,57.54
2023-04-26T06:25:00.818Z,57.83
2023-04-26T06:27:02.185Z,57.43
2023-04-26T06:29:03.567Z,58.09
2023-04-26T06:31:04.930Z,57.90
2023-04-26T06:33:06.282Z,58.04
2023-04-26T06:35:07.746Z,57.93
2023-04-26T06:37:09.099Z,57.85
2023-04-26T06:39:10.890Z,58.16
2023-04-26T06:41:12.252Z,58.04
2023-04-26T06:43:13.646Z,58.11
2023-04-26T06:45:15.038Z,58.17
2023-04-26T06:47:16.395Z,58.07
2023-04-26T06:49:17.704Z,58.05
2023-04-26T06:51:19.206Z,58.70
2023-04-26T06:53:22.891Z,58.89
2023-04-26T06:55:25.209Z,58.97
2023-04-26T06:57:26.787Z,59.05
2023-04-26T06:59:28.092Z,47.92
2023-04-26T07:01:29.592Z,43.66
2023-04-26T07:03:31.138Z,41.61
2023-04-26T07:05:32.508Z,41.49
2023-04-26T07:07:33.863Z,40.75
2023-04-26T07:09:35.666Z,40.04
2023-04-26T07:11:36.995Z,40.24
2023-04-26T07:13:40.973Z,40.64
2023-04-26T07:15:42.451Z,40.76
2023-04-26T07:17:43.830Z,40.29
2023-04-26T07:19:45.160Z,39.08
2023-04-26T07:21:46.468Z,40.28
2023-04-26T07:23:47.803Z,39.83
2023-04-26T07:25:49.156Z,40.80
2023-04-26T07:27:52.163Z,39.70
2023-04-26T07:29:53.507Z,42.92
2023-04-26T07:31:54.853Z,42.57
2023-04-26T07:33:56.834Z,42.81
2023-04-26T07:35:58.833Z,43.10
2023-04-26T07:38:00.188Z,42.98
2023-04-26T07:40:01.511Z,43.60
2023-04-26T07:42:03.057Z,43.97
2023-04-26T07:44:04.393Z,44.59
2023-04-26T07:46:05.776Z,44.69
2023-04-26T07:48:07.225Z,44.92
2023-04-26T07:50:08.631Z,45.44
2023-04-26T07:52:09.989Z,45.54
2023-04-26T07:54:11.342Z,45.98
2023-04-26T07:56:12.685Z,46.12
2023-04-26T07:58:14.733Z,46.78
2023-04-26T08:00:19.109Z,46.37
2023-04-26T08:02:24.982Z,46.71
2023-04-26T08:04:32.702Z,47.53
2023-04-26T08:06:34.320Z,46.18
2023-04-26T08:08:40.421Z,47.07
2023-04-26T08:10:42.758Z,47.26
2023-04-26T08:12:44.086Z,47.64
2023-04-26T08:14:46.327Z,48.08
2023-04-26T08:16:47.650Z,47.83
2023-04-26T08:18:51.945Z,47.99
2023-04-26T08:20:55.296Z,48.02
2023-04-26T08:22:59.519Z,49.75
2023-04-26T08:25:00.814Z,48.32
2023-04-26T08:27:02.339Z,49.23
2023-04-26T08:29:03.731Z,50.11
2023-04-26T08:31:05.359Z,49.58
2023-04-26T08:33:07.012Z,49.32
2023-04-26T08:35:09.591Z,50.70
2023-04-26T08:37:11.080Z,49.04
2023-04-26T08:39:12.535Z,51.33
2023-04-26T08:41:15.142Z,49.15
2023-04-26T08:43:17.539Z,49.43
2023-04-26T08:45:19.026Z,48.80
2023-04-26T08:47:20.574Z,49.15
2023-04-26T08:49:21.870Z,49.38
2023-04-26T08:51:23.310Z,49.17
2023-04-26T08:53:24.661Z,49.72
2023-04-26T08:55:25.994Z,49.53
2023-04-26T08:57:27.309Z,49.54
2023-04-26T08:59:28.603Z,49.70
2023-04-26T09:01:29.991Z,50.31
2023-04-26T09:03:31.565Z,49.83
2023-04-26T09:05:33.061Z,50.33
2023-04-26T09:07:34.444Z,49.88
2023-04-26T09:09:37.952Z,49.90
2023-04-26T09:11:39.274Z,49.67
2023-04-26T09:13:40.696Z,49.82
2023-04-26T09:15:42.287Z,50.32
2023-04-26T09:17:44.347Z,50.46
2023-04-26T09:19:45.828Z,50.45
2023-04-26T09:21:47.259Z,50.62
2023-04-26T09:23:48.568Z,50.75
2023-04-26T09:25:49.861Z,50.95
2023-04-26T09:27:51.197Z,51.48
2023-04-26T09:29:52.504Z,50.96
2023-04-26T09:31:53.974Z,50.65
2023-04-26T09:33:55.372Z,50.79
2023-04-26T09:35:56.672Z,51.60
2023-04-26T09:38:07.850Z,52.03
2023-04-26T09:40:13.286Z,52.16
2023-04-26T09:42:14.570Z,52.05
2023-04-26T09:44:15.881Z,51.43
2023-04-26T09:46:17.234Z,51.74
2023-04-26T09:48:18.587Z,51.37
2023-04-26T09:50:19.887Z,51.65
2023-04-26T09:52:21.209Z,51.67
2023-04-26T09:54:22.518Z,51.81
2023-04-26T09:56:23.812Z,51.40
2023-04-26T09:58:25.163Z,51.56
2023-04-26T10:00:26.511Z,51.22
2023-04-26T10:02:28.123Z,51.42
2023-04-26T10:04:29.894Z,51.70
2023-04-26T10:06:33.006Z,51.34
2023-04-26T10:08:34.402Z,51.44
2023-04-26T10:10:36.236Z,52.00
2023-04-26T10:12:37.545Z,51.48
2023-04-26T10:14:38.857Z,51.85
2023-04-26T10:16:40.293Z,51.72
2023-04-26T10:18:41.692Z,51.28
2023-04-26T10:20:43.018Z,51.06
2023-04-26T10:22:44.346Z,51.30
2023-04-26T10:24:45.836Z,51.32
2023-04-26T10:26:48.563Z,50.53
2023-04-26T10:28:52.315Z,49.80
2023-04-26T10:30:56.199Z,48.90
2023-04-26T10:32:57.930Z,48.88
2023-04-26T10:34:59.488Z,48.98
2023-04-26T10:37:00.838Z,49.20
2023-04-26T10:39:02.213Z,49.92
2023-04-26T10:41:03.513Z,49.94
2023-04-26T10:43:04.855Z,50.27
2023-04-26T10:45:06.161Z,50.65
2023-04-26T10:47:07.555Z,52.08
2023-04-26T10:49:08.912Z,51.51
2023-04-26T10:51:13.049Z,51.52
2023-04-26T10:53:14.417Z,51.58
2023-04-26T10:55:15.728Z,52.23
2023-04-26T10:57:17.299Z,52.33
2023-04-26T10:59:36.350Z,52.34
2023-04-26T11:01:40.490Z,52.24
2023-04-26T11:03:42.059Z,52.05
2023-04-26T11:05:43.695Z,52.42
2023-04-26T11:07:45.034Z,53.01
2023-04-26T11:09:46.558Z,52.92
2023-04-26T11:11:47.859Z,53.36
2023-04-26T11:13:49.155Z,53.03
2023-04-26T11:15:52.047Z,53.35
2023-04-26T11:17:53.984Z,53.63
2023-04-26T11:19:55.362Z,53.59
2023-04-26T11:21:56.732Z,53.53
2023-04-26T11:23:58.029Z,53.20
2023-04-26T11:25:59.504Z,53.26
2023-04-26T11:28:01.317Z,53.38
2023-04-26T11:30:02.631Z,52.34
2023-04-26T11:32:04.084Z,52.17
2023-04-26T11:34:05.418Z,51.17
2023-04-26T11:36:06.734Z,51.19
2023-04-26T11:38:08.186Z,51.82
2023-04-26T11:40:09.504Z,52.01
2023-04-26T11:42:11.025Z,52.21
2023-04-26T11:44:12.720Z,52.18
2023-04-26T11:46:14.097Z,52.08
2023-04-26T11:48:15.467Z,52.15
2023-04-26T11:50:16.789Z,52.17
2023-04-26T11:52:18.085Z,51.79
2023-04-26T11:54:19.383Z,51.83
2023-04-26T11:56:20.771Z,51.93
2023-04-26T11:58:22.085Z,52.07
2023-04-26T12:00:23.430Z,51.82
2023-04-26T12:02:24.859Z,51.50
2023-04-26T12:04:27.601Z,51.74
2023-04-26T12:06:33.096Z,51.53
2023-04-26T12:08:34.482Z,51.59
2023-04-26T12:10:35.922Z,51.24
2023-04-26T12:12:37.335Z,51.20
2023-04-26T12:14:38.703Z,51.19
2023-04-26T12:16:40.065Z,51.48
2023-04-26T12:18:41.494Z,51.24
2023-04-26T12:20:42.798Z,51.37
2023-04-26T12:22:44.130Z,51.58
2023-04-26T12:24:47.594Z,51.78
2023-04-26T12:26:48.895Z,52.11
2023-04-26T12:28:50.499Z,52.17
2023-04-26T12:30:51.805Z,52.26
2023-04-26T12:32:54.352Z,51.93
2023-04-26T12:34:59.048Z,51.84
2023-04-26T12:37:00.407Z,52.08
2023-04-26T12:39:05.243Z,51.87
2023-04-26T12:41:07.152Z,51.88
2023-04-26T12:43:08.575Z,51.91
2023-04-26T12:45:10.139Z,52.14
2023-04-26T12:47:11.432Z,52.25
2023-04-26T12:49:12.770Z,52.17
2023-04-26T12:51:14.332Z,52.24
2023-04-26T12:53:15.736Z,51.65
2023-04-26T12:55:17.141Z,51.87
2023-04-26T12:57:18.454Z,51.86
2023-04-26T12:59:19.753Z,51.75
2023-04-26T13:01:21.376Z,51.94
2023-04-26T13:03:22.867Z,52.06
2023-04-26T13:05:29.592Z,51.85
2023-04-26T13:07:30.964Z,51.87
2023-04-26T13:09:32.267Z,51.61
2023-04-26T13:11:33.582Z,51.60
2023-04-26T13:13:43.007Z,51.30
2023-04-26T13:15:44.732Z,51.57
2023-04-26T13:17:46.270Z,51.36
2023-04-26T13:19:47.632Z,51.53
2023-04-26T13:21:49.016Z,51.46
2023-04-26T13:23:50.563Z,51.53
2023-04-26T13:25:54.571Z,51.30
2023-04-26T13:27:55.897Z,51.52
2023-04-26T13:29:57.297Z,51.79
2023-04-26T13:32:02.143Z,52.02
2023-04-26T13:34:03.441Z,51.70
2023-04-26T13:36:04.740Z,51.61
2023-04-26T13:38:06.123Z,51.88
2023-04-26T13:40:07.492Z,51.76
2023-04-26T13:42:08.852Z,51.38
2023-04-26T13:44:14.263Z,51.59
2023-04-26T13:46:15.618Z,50.93
2023-04-26T13:48:17.473Z,50.82
2023-04-26T13:50:20.090Z,50.82
2023-04-26T13:52:21.745Z,50.49
2023-04-26T13:54:23.188Z,50.24
2023-04-26T13:56:26.197Z,50.49
2023-04-26T13:58:27.680Z,50.94
2023-04-26T14:00:29.024Z,50.87
2023-04-26T14:02:30.411Z,51.42
2023-04-26T14:04:31.996Z,51.53
2023-04-26T14:06:34.136Z,51.11
2023-04-26T14:08:35.576Z,51.26
2023-04-26T14:10:36.911Z,51.89
2023-04-26T14:12:38.320Z,51.99
2023-04-26T14:14:39.669Z,51.98
2023-04-26T14:16:41.232Z,51.99
2023-04-26T14:18:45.130Z,51.59
2023-04-26T14:20:46.875Z,52.09
2023-04-26T14:22:50.227Z,52.06
2023-04-26T14:24:51.644Z,51.74
2023-04-26T14:26:52.961Z,51.75
2023-04-26T14:28:54.312Z,52.26
2023-04-26T14:30:55.676Z,51.81
2023-04-26T14:32:57.052Z,52.13
2023-04-26T14:34:58.438Z,51.65
2023-04-26T14:37:02.267Z,51.93
2023-04-26T14:39:03.595Z,52.14
2023-04-26T14:41:04.893Z,52.47
2023-04-26T14:43:06.290Z,52.50
2023-04-26T14:45:07.593Z,52.38
2023-04-26T14:47:11.663Z,52.40
2023-04-26T14:49:12.970Z,52.30
2023-04-26T14:51:14.313Z,52.28
2023-04-26T14:53:15.961Z,52.53
2023-04-26T14:55:17.612Z,52.81
2023-04-26T14:57:21.589Z,52.88
2023-04-26T14:59:22.892Z,52.45
2023-04-26T15:01:25.173Z,52.84
2023-04-26T15:03:27.763Z,52.68
2023-04-26T15:05:30.164Z,52.70
2023-04-26T15:07:32.825Z,52.24
2023-04-26T15:09:34.479Z,51.95
2023-04-26T15:11:36.054Z,51.93
2023-04-26T15:13:40.430Z,51.83
2023-04-26T15:15:42.226Z,51.40
2023-04-26T15:17:43.615Z,51.37
2023-04-26T15:19:44.960Z,51.27
2023-04-26T15:21:46.315Z,50.75
2023-04-26T15:23:47.678Z,51.04
2023-04-26T15:25:49.002Z,50.56
2023-04-26T15:27:50.701Z,51.13
2023-04-26T15:29:52.026Z,50.89
2023-04-26T15:31:53.378Z,50.88
2023-04-26T15:33:55.128Z,51.11
2023-04-26T15:35:59.527Z,51.55
2023-04-26T15:38:03.884Z,51.69
2023-04-26T15:40:06.206Z,51.56
2023-04-26T15:42:07.559Z,51.54
2023-04-26T15:44:08.881Z,51.85
2023-04-26T15:46:10.227Z,51.93
2023-04-26T15:48:12.045Z,52.06
2023-04-26T15:50:13.364Z,52.25
2023-04-26T15:52:17.039Z,52.11
2023-04-26T15:54:18.354Z,52.12
2023-04-26T15:56:19.661Z,52.22
2023-04-26T15:58:20.962Z,52.30
2023-04-26T16:00:22.630Z,52.08
2023-04-26T16:02:24.021Z,52.19
2023-04-26T16:04:28.442Z,52.32
2023-04-26T16:06:30.160Z,52.00
2023-04-26T16:08:40.030Z,52.03
2023-04-26T16:10:42.179Z,52.52
2023-04-26T16:12:44.491Z,52.25
2023-04-26T16:14:52.405Z,52.18
2023-04-26T16:16:53.699Z,52.35
2023-04-26T16:18:54.993Z,52.44
2023-04-26T16:20:56.345Z,52.24
2023-04-26T16:23:03.324Z,52.71
2023-04-26T16:25:06.847Z,52.46
2023-04-26T16:27:09.154Z,52.38
2023-04-26T16:29:10.480Z,52.15
2023-04-26T16:31:11.887Z,52.16
2023-04-26T16:33:16.215Z,52.19
2023-04-26T16:35:17.567Z,51.89
2023-04-26T16:37:18.953Z,51.64
2023-04-26T16:39:21.555Z,52.03
2023-04-26T16:41:27.431Z,51.94
2023-04-26T16:43:29.000Z,51.71
2023-04-26T16:45:31.385Z,51.87
2023-04-26T16:47:32.675Z,51.45
2023-04-26T16:49:34.272Z,51.34
2023-04-26T16:51:35.909Z,51.71
2023-04-26T16:53:40.292Z,51.23
2023-04-26T16:55:41.609Z,51.65
2023-04-26T16:57:42.942Z,51.43
2023-04-26T16:59:44.252Z,51.79
2023-04-26T17:01:46.474Z,51.28
2023-04-26T17:03:48.729Z,51.73
2023-04-26T17:05:50.182Z,51.63
2023-04-26T17:07:51.678Z,51.91
2023-04-26T17:09:53.810Z,52.06
2023-04-26T17:11:55.174Z,51.62
2023-04-26T17:13:57.178Z,51.65
2023-04-26T17:15:58.516Z,51.66
2023-04-26T17:18:00.109Z,52.07
2023-04-26T17:20:02.240Z,51.83
2023-04-26T17:22:03.572Z,52.05
2023-04-26T17:24:07.834Z,52.12
2023-04-26T17:26:09.172Z,52.02
2023-04-26T17:28:10.788Z,52.38
2023-04-26T17:30:12.162Z,52.46
2023-04-26T17:32:13.516Z,52.12
2023-04-26T17:34:14.880Z,52.10
2023-04-26T17:36:16.422Z,52.11
2023-04-26T17:38:17.752Z,52.45
2023-04-26T17:40:19.125Z,52.43
2023-04-26T17:42:23.391Z,52.55
2023-04-26T17:44:27.581Z,52.12
2023-04-26T17:46:31.909Z,52.57
2023-04-26T17:48:33.235Z,52.31
2023-04-26T17:50:37.404Z,52.25
2023-04-26T17:52:39.353Z,52.25
2023-04-26T17:54:43.368Z,52.13
2023-04-26T17:56:44.704Z,52.46
2023-04-26T17:58:49.053Z,52.07
2023-04-26T18:00:50.589Z,52.02
2023-04-26T18:02:52.012Z,52.24
2023-04-26T18:04:54.042Z,52.31
2023-04-26T18:06:55.545Z,51.90
2023-04-26T18:08:59.752Z,51.91
2023-04-26T18:11:01.350Z,51.70
2023-04-26T18:13:02.822Z,51.69
2023-04-26T18:15:04.152Z,51.90
2023-04-26T18:17:05.497Z,51.88
2023-04-26T18:19:06.863Z,51.63
2023-04-26T18:21:08.287Z,51.91
2023-04-26T18:23:09.598Z,52.07
2023-04-26T18:25:13.952Z,52.06
2023-04-26T18:27:15.517Z,52.12
2023-04-26T18:29:16.923Z,52.45
2023-04-26T18:31:18.289Z,52.24
2023-04-26T18:33:19.854Z,52.14
2023-04-26T18:35:21.341Z,52.29
2023-04-26T18:37:25.316Z,52.26
2023-04-26T18:39:26.624Z,52.19
2023-04-26T18:41:27.909Z,52.02
2023-04-26T18:43:29.228Z,52.23
2023-04-26T18:45:30.554Z,52.23
2023-04-26T18:47:31.915Z,51.97
2023-04-26T18:49:33.408Z,51.93
2023-04-26T18:51:34.706Z,51.81
2023-04-26T18:53:38.973Z,51.68
2023-04-26T18:55:40.594Z,51.98
2023-04-26T18:57:41.902Z,51.65
2023-04-26T18:59:43.213Z,51.49
2023-04-26T19:01:47.343Z,51.63
2023-04-26T19:03:48.932Z,51.57
2023-04-26T19:05:50.411Z,51.53
2023-04-26T19:07:54.639Z,51.50
2023-04-26T19:09:56.988Z,51.62
2023-04-26T19:12:00.250Z,51.60
2023-04-26T19:14:04.611Z,51.64
2023-04-26T19:16:09.241Z,51.86
2023-04-26T19:18:10.941Z,52.13
2023-04-26T19:20:14.026Z,51.69
2023-04-26T19:22:15.321Z,51.88
2023-04-26T19:24:16.657Z,51.84
2023-04-26T19:26:18.027Z,51.87
2023-04-26T19:28:20.097Z,51.92
2023-04-26T19:30:22.119Z,51.99
2023-04-26T19:32:23.825Z,51.76
2023-04-26T19:34:26.117Z,51.85
2023-04-26T19:36:27.595Z,52.13
2023-04-26T19:38:28.948Z,51.82
2023-04-26T19:40:30.294Z,52.28
2023-04-26T19:42:31.613Z,52.30
2023-04-26T19:44:36.126Z,52.10
2023-04-26T19:46:40.957Z,51.81
2023-04-26T19:48:42.364Z,52.23
2023-04-26T19:50:43.823Z,52.13
2023-04-26T19:52:45.415Z,52.12
2023-04-26T19:54:46.792Z,51.97
2023-04-26T19:56:48.108Z,52.15
2023-04-26T19:58:49.458Z,52.09
2023-04-26T20:00:51.143Z,52.35
2023-04-26T20:02:52.897Z,51.84
2023-04-26T20:04:54.342Z,51.92
2023-04-26T20:06:56.206Z,52.10
2023-04-26T20:08:57.613Z,52.04
2023-04-26T20:10:59.003Z,51.85
2023-04-26T20:13:00.721Z,51.68
2023-04-26T20:15:02.139Z,51.83
2023-04-26T20:17:03.971Z,51.95
2023-04-26T20:19:05.692Z,52.00
2023-04-26T20:21:07.201Z,51.71
2023-04-26T20:23:08.572Z,51.60
2023-04-26T20:25:09.926Z,51.76
2023-04-26T20:27:11.236Z,51.95
2023-04-26T20:29:15.893Z,51.49
2023-04-26T20:31:17.363Z,51.45
2023-04-26T20:33:21.770Z,51.82
2023-04-26T20:35:23.096Z,51.46
2023-04-26T20:37:24.396Z,51.68
2023-04-26T20:39:28.284Z,51.88
2023-04-26T20:41:29.636Z,51.64
2023-04-26T20:43:30.946Z,51.52
2023-04-26T20:45:32.298Z,51.92
2023-04-26T20:47:36.531Z,51.44
2023-04-26T20:49:37.871Z,51.73
2023-04-26T20:51:39.174Z,51.85
2023-04-26T20:53:41.025Z,51.44
2023-04-26T20:55:42.361Z,51.77
2023-04-26T20:57:43.703Z,51.83
2023-04-26T20:59:45.066Z,51.79
2023-04-26T21:01:46.379Z,52.10
2023-04-26T21:03:47.897Z,52.05
2023-04-26T21:05:49.339Z,51.76
2023-04-26T21:07:50.674Z,51.78
2023-04-26T21:09:52.313Z,52.20
2023-04-26T21:11:54.121Z,51.69
2023-04-26T21:13:58.402Z,52.08
2023-04-26T21:15:59.766Z,51.75
2023-04-26T21:18:01.141Z,52.08
2023-04-26T21:20:02.542Z,53.64
2023-04-26T21:22:03.883Z,50.13
2023-04-26T21:24:05.190Z,50.05
2023-04-26T21:26:06.686Z,49.24
2023-04-26T21:28:08.135Z,49.68
2023-04-26T21:30:09.430Z,49.32
2023-04-26T21:32:11.684Z,49.50
2023-04-26T21:34:13.100Z,49.54
2023-04-26T21:36:14.478Z,49.86
2023-04-26T21:38:15.925Z,49.79
2023-04-26T21:40:17.264Z,50.00
2023-04-26T21:42:18.736Z,50.99
2023-04-26T21:44:20.077Z,50.99
2023-04-26T21:46:21.472Z,51.17
2023-04-26T21:48:22.814Z,51.38
2023-04-26T21:50:24.166Z,51.47
2023-04-26T21:52:25.938Z,51.70
2023-04-26T21:54:27.233Z,51.91
2023-04-26T21:56:28.627Z,51.82
2023-04-26T21:58:29.915Z,52.26
2023-04-26T22:00:31.913Z,52.08
2023-04-26T22:02:33.447Z,52.24
2023-04-26T22:04:34.906Z,51.18
2023-04-26T22:06:36.272Z,50.04
2023-04-26T22:08:38.602Z,50.30
2023-04-26T22:10:39.959Z,50.68
2023-04-26T22:12:41.434Z,50.25
2023-04-26T22:14:42.760Z,49.47
2023-04-26T22:16:44.107Z,49.89
2023-04-26T22:18:45.602Z,50.48
2023-04-26T22:20:47.005Z,50.74
2023-04-26T22:22:48.313Z,51.15
2023-04-26T22:24:49.620Z,51.11
2023-04-26T22:26:51.205Z,51.55
2023-04-26T22:28:52.504Z,51.27
2023-04-26T22:30:53.797Z,51.21
2023-04-26T22:32:55.711Z,51.20
2023-04-26T22:34:57.094Z,51.69
2023-04-26T22:37:06.202Z,51.89
2023-04-26T22:39:14.868Z,51.67
2023-04-26T22:41:16.363Z,52.62
2023-04-26T22:43:17.677Z,52.70
2023-04-26T22:45:19.067Z,51.86
2023-04-26T22:47:22.795Z,51.87
2023-04-26T22:49:24.096Z,51.89
2023-04-26T22:51:25.530Z,51.94
2023-04-26T22:53:26.820Z,52.96
2023-04-26T22:55:28.198Z,52.57
2023-04-26T22:57:29.663Z,53.04
2023-04-26T22:59:34.191Z,53.07
2023-04-26T23:01:35.679Z,51.58
2023-04-26T23:03:37.159Z,50.61
2023-04-26T23:05:38.567Z,50.87
2023-04-26T23:07:39.948Z,51.53
2023-04-26T23:09:41.327Z,52.30
2023-04-26T23:11:42.693Z,51.75
2023-04-26T23:13:44.016Z,51.41
2023-04-26T23:15:45.610Z,51.56
2023-04-26T23:17:47.038Z,51.34
2023-04-26T23:19:48.417Z,50.85
2023-04-26T23:21:49.728Z,50.90
2023-04-26T23:23:51.192Z,51.39
2023-04-26T23:25:52.516Z,50.75
2023-04-26T23:27:53.808Z,51.14
2023-04-26T23:29:55.117Z,51.17
2023-04-26T23:31:56.545Z,51.18
2023-04-26T23:33:57.935Z,50.95
2023-04-26T23:35:59.274Z,50.79
2023-04-26T23:38:00.585Z,51.16
2023-04-26T23:40:02.251Z,51.32
2023-04-26T23:42:03.946Z,51.72
2023-04-26T23:44:05.740Z,52.01
2023-04-26T23:46:07.158Z,51.07
2023-04-26T23:48:08.527Z,52.69
2023-04-26T23:50:09.866Z,51.76
2023-04-26T23:52:11.511Z,51.69
2023-04-26T23:54:12.827Z,50.87
2023-04-26T23:56:14.159Z,51.01
2023-04-26T23:58:15.497Z,51.15
